createdAt,value
2023-03-26T00:05:59.025Z,92
2023-03-26T00:36:14.965Z,93.4
2023-03-26T01:06:38.584Z,93.8
2023-03-26T02:07:15.653Z,94.6
2023-03-26T05:41:48.783Z,94.90001
2023-03-26T05:41:49.771Z,99.3
2023-03-26T05:41:50.281Z,99.90001
2023-03-26T05:41:51.546Z,99.90001
2023-03-26T05:41:51.769Z,99.90001
2023-03-26T06:10:25.071Z,99.90001
2023-03-26T07:11:03.829Z,99.90001
2023-03-26T07:41:22.951Z,99.90001
2023-03-26T08:11:41.480Z,99.90001
2023-03-26T08:41:58.433Z,99.90001
2023-03-26T09:12:16.786Z,99.90001
2023-03-26T09:42:39.178Z,99.5
2023-03-26T10:13:11.903Z,92
2023-03-26T10:43:26.821Z,94.00001
2023-03-26T11:13:48.548Z,72.9
2023-03-26T11:44:21.285Z,84.3
2023-03-26T12:14:37.753Z,78.1
2023-03-26T12:44:57.258Z,72.6
2023-03-26T13:45:21.697Z,81.3
2023-03-26T14:15:40.949Z,72.8
2023-03-26T14:46:02.083Z,72.4
2023-03-26T15:16:21.241Z,71.8
2023-03-26T15:46:35.190Z,93.5
2023-03-26T16:16:48.001Z,95.7
2023-03-26T16:47:08.844Z,92.40001
2023-03-26T17:17:25.303Z,94.2
2023-03-26T17:47:41.644Z,96.3
2023-03-26T18:17:58.588Z,97.5
2023-03-26T18:48:15.935Z,99.7
2023-03-26T19:18:31.973Z,99.90001
2023-03-26T19:48:50.659Z,99.90001
2023-03-26T20:19:07.733Z,99.90001
2023-03-26T20:49:25.630Z,99.7
2023-03-26T21:19:43.901Z,97.9
2023-03-26T21:50:01.469Z,94.90001
2023-03-26T22:20:19.223Z,94.1
2023-03-26T22:50:37.013Z,94.40001
2023-03-26T23:20:54.251Z,88.6
2023-03-26T23:51:11.540Z,88.4
